Time;durP1;ratioP1;P1;durP2;ratioP2;P2;SDS_P1;SDS_P2;PMS_P1;PMS_P2;Temp;Humidity;BMP_temperature;BMP_pressure;BME280_temperature;BME280_humidity;BME280_pressure;Samples;Min_cycle;Max_cycle;Signal;HPM_P1;HPM_P2
2021/10/02 00:35:49;;;;;;;17.00;9.07;;;;;;;7.12;71.56;94245.72;5071611;28;20587;-50
2021/10/02 00:46:15;;;;;;;17.55;12.13;;;;;;;6.83;72.23;94245.09;5071198;28;20120;-50
2021/10/02 00:48:40;;;;;;;18.85;12.35;;;;;;;6.77;72.14;94240.88;5070061;28;20033;-52
2021/10/02 00:51:07;;;;;;;14.77;10.70;;;;;;;6.71;71.83;94242.91;5069688;28;20060;-51
2021/10/02 00:53:32;;;;;;;24.45;13.73;;;;;;;6.69;72.04;94232.41;5070858;28;20021;-50
2021/10/02 00:55:58;;;;;;;21.90;12.80;;;;;;;6.66;71.97;94240.91;5070839;28;20082;-53
2021/10/02 00:58:24;;;;;;;17.10;12.52;;;;;;;6.58;72.29;94237.94;5071127;28;20093;-49
2021/10/02 01:00:52;;;;;;;15.93;12.07;;;;;;;6.55;72.09;94235.47;5070729;28;20478;-52
2021/10/02 01:03:38;;;;;;;19.42;12.70;;;;;;;6.50;71.63;94228.72;5069747;28;20411;-50
2021/10/02 01:06:25;;;;;;;19.25;11.38;;;;;;;6.42;72.30;94224.28;5069367;28;20035;-51
2021/10/02 01:08:57;;;;;;;18.85;11.50;;;;;;;6.31;72.55;94227.78;5071033;28;20115;-51
2021/10/02 01:12:11;;;;;;;16.05;11.43;;;;;;;6.32;72.69;94226.56;5070658;28;20526;-50
2021/10/02 01:14:51;;;;;;;15.48;11.48;;;;;;;6.22;72.74;94221.81;5069175;28;20038;-50
2021/10/02 01:17:35;;;;;;;15.45;10.73;;;;;;;6.16;72.26;94218.34;5070795;28;20458;-50
2021/10/02 01:20:05;;;;;;;20.67;11.43;;;;;;;6.21;72.70;94214.84;5069307;28;20029;-48
2021/10/02 01:23:19;;;;;;;40.22;13.50;;;;;;;6.15;73.24;94216.88;5069202;28;20485;-48
2021/10/02 01:26:05;;;;;;;25.15;16.45;;;;;;;6.00;72.90;94211.63;5032416;28;20037;-48
2021/10/02 01:28:34;;;;;;;19.95;12.18;;;;;;;6.00;72.61;94206.91;5069268;28;20032;-48
2021/10/02 01:33:51;;;;;;;21.83;12.52;;;;;;;5.94;72.07;94208.91;5069441;28;20024;-48
2021/10/02 01:36:43;;;;;;;17.48;10.65;;;;;;;5.92;72.37;94203.19;5069922;28;20098;-48
2021/10/02 01:47:47;;;;;;;11.00;7.85;;;;;;;5.64;72.74;94207.16;5060737;28;20097;-50
2021/10/02 01:50:13;;;;;;;16.67;10.00;;;;;;;5.66;72.63;94205.41;5050214;28;20779;-49
2021/10/02 01:52:42;;;;;;;15.70;9.07;;;;;;;5.54;71.99;94187.50;5049888;28;20029;-49
2021/10/02 01:55:09;;;;;;;11.30;8.38;;;;;;;5.59;72.48;94197.69;5060967;28;20024;-49
2021/10/02 01:57:38;;;;;;;19.77;11.93;;;;;;;5.58;72.17;94198.19;5065889;28;20021;-50
2021/10/02 02:00:06;;;;;;;18.90;7.30;;;;;;;5.58;72.48;94198.94;5049156;28;20050;-48
2021/10/02 02:02:33;;;;;;;19.63;11.85;;;;;;;5.42;71.88;94202.41;5060967;28;20508;-49
2021/10/02 02:05:00;;;;;;;16.40;8.65;;;;;;;5.49;72.00;94207.41;5050226;28;20078;-48
2021/10/02 02:07:27;;;;;;;17.13;8.02;;;;;;;5.43;72.16;94195.72;5065250;28;20513;-47
2021/10/02 02:09:55;;;;;;;32.45;16.70;;;;;;;5.26;72.36;94194.94;5069090;28;20055;-49
2021/10/02 02:12:21;;;;;;;29.58;13.93;;;;;;;5.28;72.11;94200.69;5068791;28;20025;-48
2021/10/02 02:14:48;;;;;;;18.05;11.25;;;;;;;5.16;72.52;94202.66;5069859;28;20017;-48
2021/10/02 02:17:15;;;;;;;18.27;10.23;;;;;;;5.16;72.26;94194.44;5070137;28;20017;-49
2021/10/02 02:19:41;;;;;;;20.02;14.18;;;;;;;5.13;72.85;94202.91;5069558;28;20020;-49
2021/10/02 02:22:07;;;;;;;21.40;14.00;;;;;;;5.11;73.03;94199.91;5069597;28;20140;-47
2021/10/02 02:24:33;;;;;;;18.52;12.98;;;;;;;5.03;73.91;94198.88;5063489;28;20104;-47
2021/10/02 02:26:59;;;;;;;15.10;10.80;;;;;;;5.06;73.53;94198.66;5058546;28;20021;-47
2021/10/02 02:29:25;;;;;;;12.93;10.20;;;;;;;5.05;74.36;94196.41;5050093;28;20025;-47
2021/10/02 02:31:52;;;;;;;17.13;10.60;;;;;;;4.93;74.48;94176.50;5049995;28;20405;-47
2021/10/02 02:34:17;;;;;;;12.63;7.95;;;;;;;4.95;73.54;94192.41;5053297;28;20399;-47
2021/10/02 02:36:42;;;;;;;13.77;6.47;;;;;;;4.98;73.28;94197.63;5066010;28;20083;-47
2021/10/02 02:39:08;;;;;;;10.60;7.70;;;;;;;4.95;72.54;94197.88;5060423;28;20385;-48
2021/10/02 02:41:33;;;;;;;14.68;7.95;;;;;;;4.92;72.97;94194.13;5065424;28;20020;-48
2021/10/02 02:43:59;;;;;;;6.38;5.15;;;;;;;4.86;72.37;94196.13;5059887;28;20033;-47
2021/10/02 02:46:31;;;;;;;9.63;5.47;;;;;;;4.79;71.84;94195.81;5067457;28;20484;-48
2021/10/02 02:49:12;;;;;;;11.10;6.80;;;;;;;4.69;73.38;94198.06;5058461;28;20029;-47
2021/10/02 02:51:55;;;;;;;11.60;7.70;;;;;;;4.67;73.02;94200.53;5067053;28;20017;-46
2021/10/02 02:54:26;;;;;;;34.53;17.50;;;;;;;4.66;72.59;94201.03;5053576;28;20092;-46
2021/10/02 02:56:52;;;;;;;19.33;10.90;;;;;;;4.57;73.41;94191.03;5054592;28;20086;-47
2021/10/02 02:59:25;;;;;;;12.77;9.27;;;;;;;4.52;73.41;94189.03;5063847;28;20025;-48
2021/10/02 03:01:51;;;;;;;13.63;9.02;;;;;;;4.45;73.35;94200.44;5059563;28;20491;-47
2021/10/02 03:04:18;;;;;;;8.80;6.93;;;;;;;4.41;73.26;94189.75;5056249;28;20021;-47
2021/10/02 03:06:48;;;;;;;6.28;5.43;;;;;;;4.28;72.35;94170.31;5051796;28;20518;-47
2021/10/02 03:09:14;;;;;;;11.02;6.40;;;;;;;4.43;73.60;94186.53;5052904;28;20064;-47
2021/10/02 03:11:39;;;;;;;7.88;5.97;;;;;;;4.29;73.83;94180.00;5053177;28;20087;-46
2021/10/02 03:14:05;;;;;;;6.90;5.13;;;;;;;4.31;72.92;94185.00;5051913;28;20025;-47
2021/10/02 03:16:31;;;;;;;9.63;6.18;;;;;;;4.38;73.20;94184.50;5051926;28;20098;-49
2021/10/02 03:19:00;;;;;;;7.50;5.18;;;;;;;4.31;73.31;94180.25;5054747;28;20100;-48
2021/10/02 03:21:26;;;;;;;8.73;6.68;;;;;;;4.34;72.53;94182.00;5071366;28;20530;-48
2021/10/02 03:23:51;;;;;;;14.30;7.50;;;;;;;4.16;72.87;94157.09;5071668;28;20056;-48
2021/10/02 03:26:17;;;;;;;12.60;7.28;;;;;;;4.29;72.30;94182.72;5071390;28;20483;-48
2021/10/02 03:28:43;;;;;;;12.00;8.88;;;;;;;4.27;72.67;94176.25;5071787;28;20100;-50
2021/10/02 03:31:09;;;;;;;16.77;8.77;;;;;;;4.25;72.65;94173.25;5071284;28;20028;-49
2021/10/02 03:33:35;;;;;;;69.20;13.25;;;;;;;4.19;73.24;94173.25;5072710;28;20024;-50
2021/10/02 03:36:01;;;;;;;26.80;13.13;;;;;;;4.16;72.53;94170.75;5071322;28;20107;-51
2021/10/02 03:38:27;;;;;;;12.65;7.18;;;;;;;4.14;72.42;94165.75;5072375;28;20121;-54
2021/10/02 03:40:58;;;;;;;130.05;41.67;;;;;;;4.15;73.20;94171.97;5072625;28;20036;-49
2021/10/02 03:43:29;;;;;;;277.63;89.53;;;;;;;4.07;72.80;94171.69;5072190;28;20028;-51
2021/10/02 03:45:54;;;;;;;124.55;44.58;;;;;;;3.99;72.82;94176.13;5071045;28;20419;-51
2021/10/02 03:48:20;;;;;;;132.48;48.08;;;;;;;3.99;72.97;94172.63;5071355;28;20016;-50
2021/10/02 03:50:45;;;;;;;99.55;36.45;;;;;;;3.96;73.26;94168.91;5071918;28;20028;-51
2021/10/02 03:53:10;;;;;;;74.85;27.90;;;;;;;3.81;72.09;94154.66;5072081;28;20032;-50
2021/10/02 03:55:36;;;;;;;247.70;85.82;;;;;;;3.82;71.70;94167.84;5071966;28;20024;-52
2021/10/02 03:58:02;;;;;;;65.90;25.70;;;;;;;3.86;71.92;94170.31;5071990;28;20565;-49
2021/10/02 04:00:27;;;;;;;134.88;49.75;;;;;;;3.77;72.24;94163.06;5072176;28;20032;-52
2021/10/02 04:02:53;;;;;;;50.72;22.88;;;;;;;3.76;71.46;94169.78;5071503;28;20033;-48
2021/10/02 04:05:18;;;;;;;24.58;12.00;;;;;;;3.68;71.55;94171.44;5061532;28;20029;-52
2021/10/02 04:07:44;;;;;;;26.00;12.85;;;;;;;3.71;71.49;94170.50;5057594;28;20025;-50
2021/10/02 04:10:10;;;;;;;60.10;28.48;;;;;;;3.74;71.84;94166.03;5070835;28;20036;-55
2021/10/02 04:12:35;;;;;;;55.85;24.45;;;;;;;3.67;71.29;94174.69;5051432;28;20103;-56
2021/10/02 04:15:01;;;;;;;81.50;32.72;;;;;;;3.64;71.57;94172.91;5051622;28;20552;-51
2021/10/02 04:17:27;;;;;;;53.85;23.00;;;;;;;3.51;71.86;94156.22;5051586;28;20523;-50
2021/10/02 04:19:53;;;;;;;33.45;17.20;;;;;;;3.53;72.47;94173.59;5060983;28;20024;-53
2021/10/02 04:22:19;;;;;;;13.38;7.47;;;;;;;3.52;72.15;94172.09;5071323;28;20048;-51
2021/10/02 04:24:44;;;;;;;10.90;8.35;;;;;;;3.45;72.13;94174.50;5071251;28;20024;-49
2021/10/02 04:27:10;;;;;;;13.00;8.40;;;;;;;3.36;72.85;94169.97;5071245;28;20032;-52
2021/10/02 04:29:36;;;;;;;32.00;16.60;;;;;;;3.41;72.33;94171.25;5071583;28;20025;-50
2021/10/02 04:32:01;;;;;;;66.97;29.20;;;;;;;3.45;72.20;94177.25;5071059;28;20043;-49
2021/10/02 04:34:27;;;;;;;50.33;22.45;;;;;;;3.28;72.46;94163.47;5071100;28;20496;-51
2021/10/02 04:36:52;;;;;;;18.90;10.02;;;;;;;3.34;72.44;94185.34;5071328;28;20034;-50
2021/10/02 04:39:18;;;;;;;34.90;16.17;;;;;;;3.33;72.35;94183.84;5071351;28;20407;-54
2021/10/02 04:41:43;;;;;;;16.60;11.07;;;;;;;3.35;72.29;94176.69;5070229;28;20032;-51
2021/10/02 04:44:09;;;;;;;56.55;28.55;;;;;;;3.20;72.48;94162.44;5071206;28;20024;-51
2021/10/02 04:46:34;;;;;;;19.20;11.80;;;;;;;3.39;72.27;94184.66;5071296;28;20480;-50
2021/10/02 04:49:00;;;;;;;68.93;31.05;;;;;;;3.37;72.48;94181.66;5070983;28;20416;-54
2021/10/02 04:51:25;;;;;;;17.70;12.15;;;;;;;3.17;73.16;94166.09;5070899;28;20090;-54
2021/10/02 04:53:51;;;;;;;29.33;19.75;;;;;;;3.31;73.71;94189.06;5070821;28;20062;-55
2021/10/02 04:56:19;;;;;;;26.60;18.85;;;;;;;3.33;72.60;94184.63;5070682;28;20035;-54
2021/10/02 04:58:44;;;;;;;13.35;8.93;;;;;;;3.27;72.09;94180.34;5064876;28;20027;-50
2021/10/02 05:01:11;;;;;;;17.20;12.45;;;;;;;3.23;72.73;94185.28;5058798;28;20033;-54
2021/10/02 05:03:37;;;;;;;17.83;11.40;;;;;;;3.24;72.35;94181.28;5069504;28;20029;-50
2021/10/02 05:06:04;;;;;;;15.98;10.27;;;;;;;3.45;72.28;94188.91;5070688;28;20487;-52
2021/10/02 05:08:31;;;;;;;32.40;18.75;;;;;;;3.33;72.48;94175.66;5070844;28;20063;-53
2021/10/02 05:10:56;;;;;;;125.75;63.30;;;;;;;3.34;73.04;94186.09;5070505;28;20495;-51
2021/10/02 05:13:22;;;;;;;75.55;43.92;;;;;;;3.42;73.16;94183.69;5070514;28;20074;-49
2021/10/02 05:15:47;;;;;;;28.50;17.10;;;;;;;3.42;72.94;94194.59;5070422;28;20027;-52
2021/10/02 05:18:13;;;;;;;18.83;14.00;;;;;;;3.48;72.92;94181.75;5069648;28;20116;-55
2021/10/02 05:20:39;;;;;;;20.63;13.10;;;;;;;3.58;72.52;94186.53;5069883;28;20025;-54
2021/10/02 05:23:04;;;;;;;16.77;12.02;;;;;;;3.65;72.82;94185.34;5070671;28;20036;-55
2021/10/02 05:25:30;;;;;;;19.73;10.95;;;;;;;3.52;73.53;94166.66;5070704;28;20480;-57
2021/10/02 05:27:55;;;;;;;41.55;21.90;;;;;;;3.68;73.48;94185.09;5069510;28;20062;-54
2021/10/02 05:30:21;;;;;;;126.47;67.90;;;;;;;3.68;73.08;94190.56;5070405;28;20043;-50
2021/10/02 05:32:47;;;;;;;52.97;30.25;;;;;;;3.75;73.96;94186.63;5070565;28;20030;-56
2021/10/02 05:35:12;;;;;;;71.72;38.13;;;;;;;3.76;74.23;94183.44;5063408;28;20512;-56
2021/10/02 05:37:38;;;;;;;176.52;83.63;;;;;;;3.86;73.87;94189.44;5059155;28;20044;-57
2021/10/02 05:40:04;;;;;;;88.35;43.22;;;;;;;3.98;74.57;94190.28;5050132;28;20032;-57
2021/10/02 05:42:29;;;;;;;41.10;23.35;;;;;;;4.03;74.75;94190.28;5059210;28;20037;-56
2021/10/02 05:44:55;;;;;;;38.13;21.20;;;;;;;4.17;74.87;94194.84;5058885;28;20036;-57
2021/10/02 05:47:20;;;;;;;79.82;38.63;;;;;;;4.16;75.97;94185.16;5070181;28;20025;-56
2021/10/02 05:49:46;;;;;;;126.88;49.83;;;;;;;4.30;75.31;94194.41;5070438;28;20070;-56
2021/10/02 05:52:12;;;;;;;25.48;13.25;;;;;;;4.35;75.41;94194.44;5070477;28;20050;-58
2021/10/02 05:54:38;;;;;;;13.07;8.10;;;;;;;4.42;75.23;94201.41;5070105;28;20055;-53
2021/10/02 05:57:04;;;;;;;62.50;43.22;;;;;;;4.48;75.44;94202.22;5061561;28;20028;-50
2021/10/02 05:59:29;;;;;;;32.30;23.58;;;;;;;4.60;75.76;94204.50;5051468;28;20033;-50
2021/10/02 06:01:55;;;;;;;51.78;37.97;;;;;;;4.78;75.27;94206.03;5069992;28;20500;-49
2021/10/02 06:04:20;;;;;;;30.30;22.40;;;;;;;4.86;74.59;94200.84;5070184;28;20028;-49
2021/10/02 06:06:46;;;;;;;21.73;16.08;;;;;;;5.14;75.04;94198.91;5070040;28;20484;-50
2021/10/02 06:09:11;;;;;;;17.55;13.07;;;;;;;5.53;74.86;94210.66;5070290;28;20084;-47
2021/10/02 06:11:37;;;;;;;17.00;15.20;;;;;;;6.19;72.88;94206.38;5070438;28;20024;-47
2021/10/02 06:14:02;;;;;;;12.60;11.27;;;;;;;7.16;69.81;94183.03;5057742;28;20032;-49
2021/10/02 06:16:28;;;;;;;12.80;10.27;;;;;;;8.52;65.93;94211.13;5066736;28;20042;-47
2021/10/02 06:18:53;;;;;;;13.27;11.60;;;;;;;9.71;61.92;94206.56;5073559;28;20028;-47
2021/10/02 06:21:19;;;;;;;14.77;12.48;;;;;;;10.88;57.73;94204.53;5073548;28;20056;-46
2021/10/02 06:23:45;;;;;;;13.98;9.32;;;;;;;12.24;54.87;94208.78;5072672;28;20029;-48
2021/10/02 06:26:10;;;;;;;8.43;7.50;;;;;;;13.47;51.30;94200.13;5073636;28;20090;-48
2021/10/02 06:28:36;;;;;;;9.93;6.88;;;;;;;14.58;48.69;94196.59;5073912;28;20078;-46
2021/10/02 06:31:01;;;;;;;44.08;10.13;;;;;;;15.65;46.09;94200.59;5073581;28;20071;-49
2021/10/02 06:33:28;;;;;;;7.03;5.60;;;;;;;16.55;42.88;94190.94;5073649;28;20024;-48
2021/10/02 06:35:53;;;;;;;4.65;3.80;;;;;;;17.44;41.69;94198.97;5073823;28;20024;-48
2021/10/02 06:38:19;;;;;;;4.13;3.10;;;;;;;18.29;38.67;94200.09;5073704;28;20389;-50
2021/10/02 06:40:44;;;;;;;6.55;4.45;;;;;;;18.82;37.55;94195.16;5073405;28;20032;-48
2021/10/02 06:43:11;;;;;;;5.45;3.58;;;;;;;19.48;37.38;94196.63;5073599;28;20052;-49
2021/10/02 06:45:37;;;;;;;7.65;4.10;;;;;;;19.76;35.93;94197.91;5073262;28;20035;-49
2021/10/02 06:48:03;;;;;;;5.78;4.32;;;;;;;19.93;34.94;94200.53;5073268;28;20618;-50
2021/10/02 06:50:29;;;;;;;5.45;3.80;;;;;;;20.17;33.99;94195.91;5073455;28;20036;-49
2021/10/02 06:52:55;;;;;;;9.32;3.95;;;;;;;20.31;33.86;94200.47;5073492;28;20628;-51
2021/10/02 06:55:21;;;;;;;4.53;3.60;;;;;;;20.37;34.31;94200.19;5073390;28;20025;-49
2021/10/02 06:57:47;;;;;;;5.65;4.60;;;;;;;20.86;33.47;94199.38;5073119;28;20483;-49
2021/10/02 07:00:13;;;;;;;9.93;4.32;;;;;;;21.17;33.72;94188.13;5073357;28;20172;-50
2021/10/02 07:02:39;;;;;;;5.35;4.05;;;;;;;21.41;33.02;94189.00;5065168;28;20025;-51
2021/10/02 07:05:05;;;;;;;9.40;3.67;;;;;;;21.46;32.47;94194.25;5064678;28;20549;-49
2021/10/02 07:07:31;;;;;;;4.40;3.15;;;;;;;22.29;28.54;94199.59;5052970;28;20029;-48
2021/10/02 07:09:56;;;;;;;11.15;4.15;;;;;;;22.27;29.91;94202.28;5052818;28;20032;-49
2021/10/02 07:12:22;;;;;;;5.05;3.13;;;;;;;22.18;29.26;94197.50;5053127;28;20083;-49
2021/10/02 07:14:47;;;;;;;6.28;3.45;;;;;;;21.84;30.63;94196.06;5051998;28;20704;-47
2021/10/02 07:17:13;;;;;;;42.47;36.22;;;;;;;22.58;29.50;94202.84;5050558;28;20025;-49
2021/10/02 07:19:39;;;;;;;13.32;7.15;;;;;;;23.10;28.73;94203.22;5063843;28;20040;-49
2021/10/02 07:22:04;;;;;;;4.82;3.67;;;;;;;22.80;29.33;94195.03;5066462;28;20063;-50
2021/10/02 07:24:30;;;;;;;7.65;4.13;;;;;;;23.32;28.22;94204.53;5066564;28;20027;-49
2021/10/02 07:26:55;;;;;;;5.35;3.33;;;;;;;24.43;27.15;94187.59;5068757;28;20515;-49
2021/10/02 07:29:21;;;;;;;6.57;3.42;;;;;;;25.07;26.46;94184.66;5068615;28;20511;-50
2021/10/02 07:31:48;;;;;;;8.55;3.17;;;;;;;25.54;25.18;94186.44;5068305;28;20348;-49
2021/10/02 07:34:14;;;;;;;6.25;3.00;;;;;;;25.35;25.16;94189.69;5067637;28;20117;-49
2021/10/02 07:36:39;;;;;;;7.93;2.90;;;;;;;23.99;25.26;94194.31;5070343;28;20036;-50
2021/10/02 07:39:05;;;;;;;2.92;2.38;;;;;;;23.12;27.56;94196.97;5070012;28;20656;-50
2021/10/02 07:41:31;;;;;;;5.93;3.10;;;;;;;24.05;26.21;94192.59;5070294;28;20028;-50
2021/10/02 07:43:59;;;;;;;8.32;2.80;;;;;;;24.21;26.26;94169.44;5068841;28;20031;-49
2021/10/02 07:46:26;;;;;;;6.65;3.10;;;;;;;24.75;25.58;94181.59;5070078;28;20747;-49
2021/10/02 07:48:52;;;;;;;3.70;2.30;;;;;;;24.18;24.46;94181.97;5070283;28;20035;-50
2021/10/02 07:51:22;;;;;;;4.50;2.65;;;;;;;24.31;25.11;94167.91;5070109;28;20043;-50
2021/10/02 07:53:50;;;;;;;4.13;2.95;;;;;;;25.47;24.85;94179.00;5069146;28;20024;-52
2021/10/02 07:56:16;;;;;;;4.40;2.63;;;;;;;26.12;22.54;94180.09;5070313;28;20514;-49
2021/10/02 07:58:42;;;;;;;5.93;2.47;;;;;;;25.77;23.78;94173.38;5070051;28;20211;-53
2021/10/02 08:01:07;;;;;;;4.50;2.45;;;;;;;25.37;22.90;94169.97;5068476;28;20038;-55
2021/10/02 08:03:33;;;;;;;7.15;2.67;;;;;;;24.84;23.71;94162.97;5068431;28;20020;-52
2021/10/02 08:06:00;;;;;;;5.43;2.22;;;;;;;25.00;23.41;94165.91;5069540;28;20059;-49
2021/10/02 08:08:25;;;;;;;4.70;2.53;;;;;;;23.69;24.29;94173.56;5069215;28;20031;-46
2021/10/02 08:10:51;;;;;;;3.28;2.47;;;;;;;24.73;24.66;94169.44;5069205;28;20492;-48
2021/10/02 08:13:18;;;;;;;4.82;2.65;;;;;;;25.20;23.51;94166.97;5069551;28;20039;-47
2021/10/02 08:15:45;;;;;;;2.63;2.22;;;;;;;26.02;22.58;94165.44;5069146;28;20547;-48
2021/10/02 08:18:16;;;;;;;4.88;2.17;;;;;;;27.11;20.89;94170.50;5069330;28;20086;-49
2021/10/02 08:20:44;;;;;;;4.20;2.33;;;;;;;26.14;22.75;94132.06;5069140;28;20381;-53
2021/10/02 08:23:11;;;;;;;5.67;2.37;;;;;;;26.37;21.93;94167.81;5067819;28;20051;-50
2021/10/02 08:25:37;;;;;;;10.85;3.22;;;;;;;26.98;21.22;94163.56;5067713;28;20032;-51
2021/10/02 08:28:04;;;;;;;4.72;2.75;;;;;;;28.05;20.91;94161.75;5067887;28;20051;-50
2021/10/02 08:30:30;;;;;;;6.80;2.72;;;;;;;28.23;20.93;94168.16;5069113;28;20528;-50
2021/10/02 08:32:57;;;;;;;2.63;2.20;;;;;;;28.00;20.49;94158.03;5068840;28;20039;-49
2021/10/02 08:35:22;;;;;;;5.72;2.47;;;;;;;27.94;20.36;94171.22;5068750;28;20036;-49
2021/10/02 08:37:48;;;;;;;5.35;2.70;;;;;;;28.87;20.62;94169.94;5068955;28;20033;-51
2021/10/02 08:40:15;;;;;;;6.65;2.55;;;;;;;29.10;20.49;94163.69;5068799;28;20035;-49
2021/10/02 08:42:42;;;;;;;4.63;2.30;;;;;;;30.10;18.51;94162.91;5068718;28;20028;-46
2021/10/02 08:45:08;;;;;;;2.50;1.88;;;;;;;30.73;16.20;94158.50;5069196;28;20116;-49
2021/10/02 08:47:39;;;;;;;6.60;2.30;;;;;;;30.99;16.88;94150.03;5069102;28;20021;-48
2021/10/02 08:50:07;;;;;;;4.68;2.30;;;;;;;30.81;17.30;94152.34;5068557;28;20647;-49
2021/10/02 08:52:33;;;;;;;10.23;2.90;;;;;;;30.55;17.81;94151.53;5068391;28;20068;-49
2021/10/02 08:55:00;;;;;;;3.88;2.30;;;;;;;30.68;17.32;94151.25;5068416;28;20048;-49
2021/10/02 08:57:27;;;;;;;6.53;3.03;;;;;;;31.09;17.67;94150.34;5068387;28;20529;-49
2021/10/02 08:59:55;;;;;;;5.93;2.17;;;;;;;31.18;17.23;94149.16;5067094;28;20063;-48
2021/10/02 09:02:22;;;;;;;4.95;3.00;;;;;;;31.29;17.40;94153.75;5067660;28;20093;-50
2021/10/02 09:04:48;;;;;;;9.00;2.40;;;;;;;31.77;17.05;94150.78;5056226;28;20124;-48
2021/10/02 09:07:19;;;;;;;8.85;2.83;;;;;;;32.00;16.72;94149.94;5067496;28;20117;-51
2021/10/02 09:09:47;;;;;;;5.72;2.20;;;;;;;32.17;15.24;94143.97;5050298;28;20040;-56
2021/10/02 09:12:16;;;;;;;5.72;2.10;;;;;;;31.85;15.13;94154.56;5056085;28;20033;-48
2021/10/02 09:14:42;;;;;;;5.60;2.40;;;;;;;31.53;16.14;94144.41;5068231;28;20531;-46
2021/10/02 09:17:08;;;;;;;4.88;2.22;;;;;;;30.99;15.86;94149.31;5068565;28;20028;-48
2021/10/02 09:19:33;;;;;;;4.43;2.03;;;;;;;30.58;15.83;94125.28;5070215;28;20020;-49
2021/10/02 09:22:05;;;;;;;5.78;2.17;;;;;;;29.94;17.88;94140.31;5070350;28;20044;-47
2021/10/02 09:24:35;;;;;;;5.68;2.47;;;;;;;29.42;18.70;94142.09;5070686;28;20052;-48
2021/10/02 09:27:01;;;;;;;5.05;2.50;;;;;;;29.29;18.97;94140.22;5070311;28;20488;-48
2021/10/02 09:29:36;;;;;;;13.18;3.35;;;;;;;29.60;19.05;94137.03;5070695;28;20039;-51
2021/10/02 09:32:02;;;;;;;6.22;4.90;;;;;;;30.30;17.78;94140.78;5069281;28;20029;-48
2021/10/02 09:34:28;;;;;;;3.95;2.85;;;;;;;30.88;18.16;94133.31;5068258;28;20021;-49
2021/10/02 09:36:53;;;;;;;5.05;2.67;;;;;;;31.00;17.83;94113.69;5066610;28;20119;-49
2021/10/02 09:39:19;;;;;;;4.13;2.55;;;;;;;31.78;16.79;94130.09;5070224;28;20027;-48
2021/10/02 09:41:52;;;;;;;5.65;2.38;;;;;;;31.89;16.58;94119.66;5070193;28;20145;-48
2021/10/02 09:44:22;;;;;;;10.05;3.05;;;;;;;31.75;17.10;94127.88;5070441;28;20404;-50
2021/10/02 09:46:48;;;;;;;2.38;2.15;;;;;;;28.49;18.92;94120.88;5068650;28;20462;-50
2021/10/02 09:49:13;;;;;;;3.38;2.55;;;;;;;27.33;20.56;94123.25;5070076;28;20169;-49
2021/10/02 09:51:41;;;;;;;3.53;2.17;;;;;;;27.86;20.75;94120.53;5070019;28;20104;-47
2021/10/02 09:54:06;;;;;;;9.23;2.58;;;;;;;28.26;20.78;94107.94;5070398;28;20024;-53
2021/10/02 09:56:32;;;;;;;6.65;2.33;;;;;;;27.44;21.97;94115.94;5070081;28;20039;-54
2021/10/02 09:58:58;;;;;;;8.80;3.25;;;;;;;28.14;21.24;94112.41;5069884;28;20026;-47
2021/10/02 10:01:25;;;;;;;4.97;3.00;;;;;;;28.86;19.96;94103.09;5070296;28;20050;-48
2021/10/02 10:03:51;;;;;;;10.40;4.82;;;;;;;28.80;20.38;94105.72;5069955;28;20027;-50
2021/10/02 10:06:18;;;;;;;8.63;5.22;;;;;;;28.67;20.89;94098.88;5069739;28;20017;-48
2021/10/02 10:08:44;;;;;;;8.02;3.45;;;;;;;29.44;19.53;94101.59;5070073;28;20078;-49
2021/10/02 10:11:11;;;;;;;4.20;2.97;;;;;;;29.69;19.66;94098.19;5069065;28;20032;-48
2021/10/02 10:13:38;;;;;;;2.90;2.60;;;;;;;30.02;19.84;94100.00;5070276;28;20012;-50
2021/10/02 10:16:10;;;;;;;3.33;2.95;;;;;;;30.26;19.74;94100.75;5068476;28;20029;-48
2021/10/02 10:18:39;;;;;;;2.70;2.47;;;;;;;30.51;17.78;94091.56;5068776;28;20069;-46
2021/10/02 10:21:07;;;;;;;2.80;2.42;;;;;;;30.58;18.66;94087.50;5068736;28;20053;-47
2021/10/02 10:23:38;;;;;;;5.68;3.60;;;;;;;29.60;19.91;94088.66;5067747;28;20031;-49
2021/10/02 10:26:09;;;;;;;4.03;2.70;;;;;;;29.19;19.01;94100.06;5068513;28;20050;-47
2021/10/02 10:28:40;;;;;;;9.30;5.70;;;;;;;29.87;19.76;94085.31;5069308;28;20016;-47
2021/10/02 10:31:08;;;;;;;9.48;5.38;;;;;;;29.48;20.67;94090.34;5069709;28;20031;-47
2021/10/02 10:33:34;;;;;;;5.88;4.90;;;;;;;28.45;21.61;94087.38;5068994;28;20035;-50
2021/10/02 10:35:59;;;;;;;4.28;3.38;;;;;;;28.80;21.30;94080.16;5067009;28;20029;-47
2021/10/02 10:38:25;;;;;;;9.77;6.68;;;;;;;29.25;20.30;94086.03;5066986;28;20103;-47
2021/10/02 10:40:52;;;;;;;7.78;4.63;;;;;;;28.49;19.86;94073.31;5068267;28;20055;-46
2021/10/02 10:43:19;;;;;;;6.05;3.40;;;;;;;28.71;20.64;94084.06;5068076;28;20020;-47
2021/10/02 10:45:45;;;;;;;7.97;4.07;;;;;;;28.86;19.99;94074.69;5068046;28;20032;-48
2021/10/02 10:48:11;;;;;;;10.27;8.05;;;;;;;29.45;19.86;94071.78;5068620;28;20033;-48
2021/10/02 10:50:40;;;;;;;12.77;5.07;;;;;;;30.14;19.79;94075.47;5068750;28;20017;-49
2021/10/02 10:53:06;;;;;;;13.30;4.10;;;;;;;30.28;18.51;94058.78;5068475;28;20035;-48
2021/10/02 10:55:32;;;;;;;14.50;4.32;;;;;;;30.08;19.55;94077.41;5068420;28;20024;-47
2021/10/02 10:58:01;;;;;;;9.02;3.20;;;;;;;30.60;18.21;94081.88;5069684;28;20025;-48
2021/10/02 11:00:29;;;;;;;;;;;;;;;30.37;18.58;94071.19;5073492;28;20024;-47
2021/10/02 11:03:07;;;;;;;11.27;9.93;;;;;;;30.33;18.74;94066.13;5073456;28;20349;-47
2021/10/02 11:05:35;;;;;;;9.77;4.77;;;;;;;30.57;18.58;94071.78;5072824;28;20040;-46
2021/10/02 11:08:05;;;;;;;4.05;2.60;;;;;;;30.59;18.68;94069.75;5072981;28;20560;-48
2021/10/02 11:10:42;;;;;;;6.35;3.35;;;;;;;29.50;19.31;94059.84;5073184;28;20415;-46
2021/10/02 11:13:17;;;;;;;4.72;2.88;;;;;;;29.79;18.96;94045.19;5073259;28;20416;-47
2021/10/02 11:15:43;;;;;;;4.15;2.30;;;;;;;30.09;18.32;94058.91;5073122;28;20035;-48
2021/10/02 11:18:41;;;;;;;3.65;3.08;;;;;;;29.96;19.21;94061.38;5073120;28;20032;-47
2021/10/02 11:21:06;;;;;;;13.95;10.50;;;;;;;29.71;19.99;94049.88;5072797;28;20114;-48
2021/10/02 11:23:38;;;;;;;6.10;3.53;;;;;;;29.48;20.21;94041.97;5072636;28;20454;-46
2021/10/02 11:26:21;;;;;;;3.63;3.33;;;;;;;28.62;20.51;94053.91;5067585;28;20031;-45
2021/10/02 11:28:51;;;;;;;3.50;2.13;;;;;;;28.47;21.19;94047.69;5054147;28;20036;-47
2021/10/02 11:31:19;;;;;;;8.68;3.30;;;;;;;28.33;21.78;94038.63;5061705;28;20029;-47
2021/10/02 11:33:50;;;;;;;9.30;3.55;;;;;;;28.64;21.29;94042.59;5072762;28;20033;-48
2021/10/02 11:36:42;;;;;;;13.48;3.60;;;;;;;28.25;21.47;94035.50;5072821;28;20059;-45
2021/10/02 11:39:12;;;;;;;7.20;4.20;;;;;;;28.14;21.07;94032.91;5069776;28;20036;-46
2021/10/02 11:41:45;;;;;;;7.43;3.45;;;;;;;27.73;21.61;94030.59;5072603;28;20031;-46
2021/10/02 11:44:12;;;;;;;6.28;2.45;;;;;;;27.73;22.38;94039.13;5072595;28;20032;-46
2021/10/02 11:46:39;;;;;;;9.75;2.92;;;;;;;27.21;22.47;94036.97;5072405;28;20101;-46
2021/10/02 11:49:19;;;;;;;11.20;3.28;;;;;;;27.31;23.05;94040.94;5072593;28;20027;-46
2021/10/02 11:52:12;;;;;;;9.90;3.30;;;;;;;26.57;23.38;94037.75;5072216;28;20031;-45
2021/10/02 11:54:39;;;;;;;5.97;2.92;;;;;;;26.18;23.93;94038.84;5072418;28;20035;-46
2021/10/02 11:57:14;;;;;;;2.95;2.53;;;;;;;26.20;22.05;94038.97;5070784;28;20070;-45
2021/10/02 11:59:41;;;;;;;9.63;4.22;;;;;;;26.30;23.30;94033.75;5071934;28;20020;-46
2021/10/02 12:02:07;;;;;;;5.72;2.67;;;;;;;25.99;22.57;94033.69;5071845;28;20036;-46
2021/10/02 12:04:32;;;;;;;17.45;3.80;;;;;;;25.57;24.33;94026.06;5070802;28;20530;-46
2021/10/02 12:06:58;;;;;;;4.00;2.63;;;;;;;25.45;24.76;94023.38;5072118;28;20484;-47
2021/10/02 12:09:29;;;;;;;3.25;2.70;;;;;;;25.12;25.39;94025.25;5071615;28;20086;-47
2021/10/02 12:11:54;;;;;;;5.47;2.60;;;;;;;25.18;24.36;94026.28;5071698;28;20507;-45
2021/10/02 12:14:22;;;;;;;8.63;3.47;;;;;;;25.16;25.00;94031.13;5071940;28;20013;-47
2021/10/02 12:16:56;;;;;;;6.90;3.20;;;;;;;24.87;24.90;94028.22;5071672;28;20058;-45
2021/10/02 12:19:21;;;;;;;9.20;3.30;;;;;;;24.57;26.59;94033.78;5071583;28;20103;-46
2021/10/02 12:21:55;;;;;;;10.57;3.80;;;;;;;24.33;25.88;94024.06;5071379;28;20599;-47
2021/10/02 12:24:25;;;;;;;3.70;3.00;;;;;;;24.09;26.94;94032.00;5071725;28;20106;-46
2021/10/02 12:27:10;;;;;;;8.70;3.60;;;;;;;24.14;26.93;94029.38;5070336;28;20024;-46